Southampton, New Jersey
Current Conditions -  °F | °C
As of 8:54 PM on Thursday 18 Dec 2014 (Local Time) from KVAY Reporting Station
Overcast Overcast  
Wind Chill: 30°   Ceiling: 3500
Heat Index: 36°   Visibility: 10mi
Dew Point: 25°   Wind: 8mph
Humidity: 64%   Direction: 260°W
Pressure: 30.05"   Gusts: NA
Location:  39.7955°N, 74.6301°W
Report Text: KVAY 190154Z AUTO 26007KT 10SM OVC035 02/M04 A3005 RMK AO2 SLP176 T00221039
Loading
Personal Weather Stations






























Interactive Weather Map New forecast layout! Learn more

10-Day Weather Forecast

Advertisements
Track Severe Weather on mobile